Latest Coastal Weather Observations for Croker Island Airport

IDD60701

Issued at 11:11 am CST Wednesday 28 September 2016 (issued every 10 minutes, with the page automatically refreshed every 10 minutes)

About coastal observations | Map of coastal stations | Coastal observations for NT | Marine services | Other Formats
Station Details ID: 014308 Name: CROKER ISLAND AIRPORT Lat: -11.16 Lon: 132.48 Height: 9.2 m
Data from the previous 72 hours. | See also: Recent months at Croker Island Airport
Date/Time
CST
Temp
°C
Wind Pressure Rain since
9am
mm
Weather Cloud Vis
km
Sea
Height
m
Swell
Dir  Spd
kts
Gust
kts
hPa Trend Height
m
Period
s
Dir
28/11:00am 31.4 NW 5 7 1011.4 - 0.0 - - - - - - -
28/10:30am 31.1 W 5 7 1011.7 - 0.0 - - - - - - -
28/10:00am 30.5 W 4 7 1011.9 - 0.0 - - - - - - -
28/09:30am 30.4 NW 4 6 1012.1 - 0.0 - - - - - - -
28/09:00am 29.9 N 2 5 1012.0 - 0.0 - - - - - - -
28/08:30am 29.3 N 3 4 1011.7 - 0.0 - - - - - - -
28/08:00am 28.4 NNE 3 4 1011.4 - 0.0 - - - - - - -
28/07:30am 27.1 NE 1 2 1011.2 - 0.0 - - - - - - -
28/07:00am 25.1 ENE 2 2 1010.8 - 0.0 - - - - - - -
28/06:30am 24.0 ENE 2 2 1010.4 - 0.0 - - - - - - -
28/06:00am 23.9 E 3 3 1010.0 - 0.0 - - - - - - -
28/05:30am 24.2 E 3 3 1009.8 - 0.0 - - - - - - -
28/05:00am 24.4 NE 2 2 1009.4 - 0.0 - - - - - - -
28/04:30am 24.3 NE 2 2 1009.3 - 0.0 - - - - - - -
28/04:00am 24.4 NE 2 2 1009.2 - 0.0 - - - - - - -
28/03:30am 24.4 E 2 3 1009.2 - 0.0 - - - - - - -
28/03:00am 24.5 NE 2 2 1009.1 - 0.0 - - - - - - -
28/02:30am 24.1 ENE 1 1 1009.1 - 0.0 - - - - - - -
28/02:00am 24.3 E 1 2 1009.2 - 0.0 - - - - - - -
28/01:30am 24.8 E 2 2 1009.3 - 0.0 - - - - - - -
28/01:00am 24.9 E 2 3 1009.6 - 0.0 - - - - - - -
28/12:30am 24.9 ESE 2 2 1009.9 - 0.0 - - - - - - -
28/12:00am 24.9 E 3 3 1010.2 - 0.0 - - - - - - -
 
Date/Time
CST
Temp
°C
Wind Pressure Rain since
9am
mm
Weather Cloud Vis
km
Sea
Height
m
Swell
Dir  Spd
kts
Gust
kts
hPa Trend Height
m
Period
s
Dir
27/11:30pm 25.0 E 3 3 1010.3 - 0.0 - - - - - - -
27/11:00pm 25.6 ENE 2 3 1010.5 - 0.0 - - - - - - -
27/10:30pm 25.3 CALM 0 0 1010.6 - 0.0 - - - - - - -
27/10:00pm 25.5 CALM 0 0 1010.3 - 0.0 - - - - - - -
27/09:30pm 26.0 CALM 0 1 1010.3 - 0.0 - - - - - - -
27/09:00pm 26.5 E 1 2 1009.8 - 0.0 - - - - - - -
27/08:30pm 27.0 E 2 2 1009.8 - 0.0 - - - - - - -
27/08:00pm 27.8 NE 4 5 1009.5 - 0.0 - - - - - - -
27/07:30pm 28.0 NNE 5 7 1009.1 - 0.0 - - - - - - -
27/07:00pm 28.3 NE 4 6 1009.1 - 0.0 - - - - - - -
27/06:30pm 28.6 NNE 6 8 1008.7 - 0.0 - - - - - - -
27/06:00pm 29.3 NE 5 8 1008.4 - 0.0 - - - - - - -
27/05:30pm 29.9 NE 5 8 1008.4 - 0.0 - - - - - - -
27/05:00pm 30.4 NE 7 10 1008.3 - 0.0 - - - - - - -
27/04:30pm 31.2 NE 7 11 1008.4 - 0.0 - - - - - - -
27/04:00pm 32.5 NE 6 9 1008.4 - 0.0 - - - - - - -
27/03:30pm 32.4 NE 6 9 1008.5 - 0.0 - - - - - - -
27/03:00pm 32.5 NNE 4 9 1008.6 - 0.0 - - - - - - -
27/02:30pm 33.0 NW 7 11 1009.0 - 0.0 - - - - - - -
27/02:00pm 32.6 NW 7 12 1009.4 - 0.0 - - - - - - -
27/01:30pm 31.9 NW 6 9 1009.8 - 0.0 - - - - - - -
27/01:00pm 31.5 NNW 6 9 1010.2 - 0.0 - - - - - - -
27/12:30pm 32.1 NW 4 8 1010.7 - 0.0 - - - - - - -
27/12:00pm 30.7 W 3 5 1011.1 - 0.0 - - - - - - -
27/11:30am 30.2 WNW 4 5 1011.7 - 0.0 - - - - - - -
27/11:00am 30.6 WSW 3 5 1012.0 - 0.0 - - - - - - -
27/10:30am 29.9 WSW 3 4 1012.1 - 0.0 - - - - - - -
27/10:00am 29.6 WSW 4 5 1012.2 - 0.0 - - - - - - -
27/09:30am 29.0 W 3 5 1012.2 - 0.0 - - - - - - -
27/09:00am 29.3 WSW 2 3 1012.1 - 0.0 - - - - - - -
27/08:30am 29.2 E 2 4 1011.9 - 0.0 - - - - - - -
27/08:00am 28.4 ENE 1 2 1011.7 - 0.0 - - - - - - -
27/07:30am 27.6 CALM 0 1 1011.5 - 0.0 - - - - - - -
27/07:00am 25.8 ENE 2 3 1011.1 - 0.0 - - - - - - -
27/06:30am 25.1 ENE 1 2 1010.5 - 0.0 - - - - - - -
27/06:00am 25.1 ENE 2 2 1010.2 - 0.0 - - - - - - -
27/05:30am 26.0 NE 2 3 1009.9 - 0.0 - - - - - - -
27/05:00am 26.6 NNE 3 4 1009.9 - 0.0 - - - - - - -
27/04:30am 26.7 NNE 3 6 1009.7 - 0.0 - - - - - - -
27/04:00am 27.0 NNE 6 8 1009.6 - 0.0 - - - - - - -
27/03:30am 26.8 NNE 6 8 1009.4 - 0.0 - - - - - - -
27/03:00am 26.8 NNE 6 8 1009.3 - 0.0 - - - - - - -
27/02:30am 26.5 NNE 4 7 1009.4 - 0.0 - - - - - - -
27/02:00am 26.3 NE 3 5 1009.8 - 0.0 - - - - - - -
27/01:30am 26.2 NE 3 5 1009.9 - 0.0 - - - - - - -
27/01:00am 26.2 NE 3 4 1010.3 - 0.0 - - - - - - -
27/12:30am 26.1 NE 4 4 1010.4 - 0.0 - - - - - - -
27/12:00am 25.5 NE 4 5 1010.7 - 0.0 - - - - - - -
 
Date/Time
CST
Temp
°C
Wind Pressure Rain since
9am
mm
Weather Cloud Vis
km
Sea
Height
m
Swell
Dir  Spd
kts
Gust
kts
hPa Trend Height
m
Period
s
Dir
26/11:30pm 25.0 NE 3 3 1010.9 - 0.0 - - - - - - -
26/11:00pm 24.8 CALM 0 0 1010.9 - 0.0 - - - - - - -
26/10:30pm 25.1 CALM 0 0 1011.0 - 0.0 - - - - - - -
26/10:00pm 25.4 CALM 0 0 1010.9 - 0.0 - - - - - - -
26/09:30pm 25.8 ENE 1 1 1010.8 - 0.0 - - - - - - -
26/09:00pm 26.2 E 2 2 1010.3 - 0.0 - - - - - - -
26/08:30pm 26.8 ENE 2 3 1010.1 - 0.0 - - - - - - -
26/08:00pm 27.1 ENE 3 4 1009.8 - 0.0 - - - - - - -
26/07:30pm 27.4 NE 2 4 1009.5 - 0.0 - - - - - - -
26/07:00pm 27.9 ENE 2 5 1009.2 - 0.0 - - - - - - -
26/06:30pm 28.5 ENE 4 7 1008.9 - 0.0 - - - - - - -
26/06:00pm 29.6 ENE 6 9 1008.9 - 0.0 - - - - - - -
26/05:30pm 30.1 ENE 7 12 1008.5 - 0.0 - - - - - - -
26/05:00pm 30.6 ENE 10 15 1008.2 - 0.0 - - - - - - -
26/04:30pm 31.6 E 11 16 1008.2 - 0.0 - - - - - - -
26/04:00pm 32.4 ENE 10 14 1008.2 - 0.0 - - - - - - -
26/03:30pm 33.0 ENE 9 15 1008.4 - 0.0 - - - - - - -
26/03:00pm 33.7 ENE 9 13 1008.5 - 0.0 - - - - - - -
26/02:30pm 34.1 NE 6 14 1008.5 - 0.0 - - - - - - -
26/02:00pm 34.7 ENE 8 12 1009.0 - 0.0 - - - - - - -
26/01:30pm 33.4 NNE 5 11 1009.2 - 0.0 - - - - - - -
26/01:00pm 32.7 W 4 7 1009.6 - 0.0 - - - - - - -
26/12:30pm 32.4 W 4 6 1010.1 - 0.0 - - - - - - -
26/12:00pm 32.0 WNW 5 8 1010.4 - 0.0 - - - - - - -
26/11:30am 31.9 WSW 4 5 1010.6 - 0.0 - - - - - - -
26/11:00am 32.0 WNW 4 8 1010.9 - 0.0 - - - - - - -
26/10:30am 32.4 ESE 3 6 1011.2 - 0.0 - - - - - - -
26/10:00am 31.4 ENE 4 7 1011.5 - 0.0 - - - - - - -
26/09:30am 30.7 E 3 8 1011.9 - 0.0 - - - - - - -
26/09:00am 29.9 NNE 4 6 1011.7 - 0.0 - - - - - - -
26/08:30am 29.7 ENE 3 6 1011.5 - 0.0 - - - - - - -
26/08:00am 28.5 ENE 3 5 1011.1 - 0.0 - - - - - - -
26/07:30am 27.5 ENE 2 3 1010.5 - 0.0 - - - - - - -
26/07:00am 25.2 ENE 3 4 1010.2 - 0.0 - - - - - - -
26/06:30am 24.6 ENE 3 4 1009.9 - 0.0 - - - - - - -
26/06:00am 25.0 ENE 3 3 1009.6 - 0.0 - - - - - - -
26/05:30am 25.0 NE 3 3 1009.3 - 0.0 - - - - - - -
26/05:00am 25.4 ENE 2 2 1009.1 - 0.0 - - - - - - -
26/04:30am 25.5 ENE 3 5 1008.9 - 0.0 - - - - - - -
26/04:00am 25.4 NE 3 4 1008.8 - 0.0 - - - - - - -
26/03:30am 25.5 NE 3 4 1008.9 - 0.0 - - - - - - -
26/03:00am 25.3 ENE 3 3 1009.0 - 0.0 - - - - - - -
26/02:30am 25.4 E 3 4 1009.1 - 0.0 - - - - - - -
26/02:00am 25.1 E 4 5 1009.4 - 0.0 - - - - - - -
26/01:30am 24.9 E 4 4 1009.4 - 0.0 - - - - - - -
26/01:00am 26.5 NW 2 2 1009.3 - 0.0 - - - - - - -
26/12:30am 26.6 NW 3 4 1009.6 - 0.0 - - - - - - -
26/12:00am 26.7 NW 3 4 1010.0 - 0.0 - - - - - - -
 
Date/Time
CST
Temp
°C
Wind Pressure Rain since
9am
mm
Weather Cloud Vis
km
Sea
Height
m
Swell
Dir  Spd
kts
Gust
kts
hPa Trend Height
m
Period
s
Dir
25/11:30pm 26.8 NNW 3 3 1010.2 - 0.0 - - - - - - -
25/11:00pm 27.3 N 3 3 1010.2 - 0.0 - - - - - - -
25/10:30pm 27.6 N 4 5 1010.4 - 0.0 - - - - - - -
25/10:00pm 27.8 N 4 6 1010.4 - 0.0 - - - - - - -
25/09:30pm 27.8 N 4 5 1010.0 - 0.0 - - - - - - -
25/09:00pm 27.9 N 3 4 1009.7 - 0.0 - - - - - - -
25/08:30pm 28.0 NNW 3 5 1009.4 - 0.0 - - - - - - -
25/08:00pm 28.0 NNW 3 5 1008.8 - 0.0 - - - - - - -
25/07:30pm 28.1 NNW 3 4 1008.6 - 0.0 - - - - - - -
25/07:00pm 28.4 N 3 5 1008.1 - 0.0 - - - - - - -
25/06:30pm 28.7 NW 4 5 1007.8 - 0.0 - - - - - - -
25/06:00pm 29.4 NW 4 6 1007.5 - 0.0 - - - - - - -
25/05:30pm 29.9 NW 5 8 1007.4 - 0.0 - - - - - - -
25/05:00pm 30.6 NW 5 8 1007.3 - 0.0 - - - - - - -
25/04:30pm 31.3 NW 6 9 1007.5 - 0.0 - - - - - - -
25/04:00pm 31.4 NW 7 9 1007.6 - 0.0 - - - - - - -
25/03:30pm 30.9 NNW 8 11 1007.6 - 0.0 - - - - - - -
25/03:00pm 31.5 NNW 8 12 1007.2 - 0.0 - - - - - - -
25/02:30pm 31.2 NNW 8 11 1007.5 - 0.0 - - - - - - -
25/02:00pm 31.6 NNW 7 10 1007.7 - 0.0 - - - - - - -
25/01:30pm 31.4 NNW 7 10 1007.8 - 0.0 - - - - - - -
25/01:00pm 32.1 NNW 6 9 1008.2 - 0.0 - - - - - - -
25/12:30pm 32.4 NW 6 9 1008.8 - 0.0 - - - - - - -
25/12:00pm 31.8 WNW 5 6 1009.3 - 0.0 - - - - - - -
25/11:30am 31.6 W 5 7 1009.9 - 0.0 - - - - - - -

Other Formats:

Comma delimited format used in spreadsheet applications
http://www.bom.gov.au/fwo/IDD60701/IDD60701.94108.axf

JavaScript Object Notation format (JSON) in row-major order
http://www.bom.gov.au/fwo/IDD60701/IDD60701.94108.json